Time;durP1;ratioP1;P1;durP2;ratioP2;P2;SDS_P1;SDS_P2;PMS_P1;PMS_P2;Temp;Humidity;BMP_temperature;BMP_pressure;BME280_temperature;BME280_humidity;BME280_pressure;Samples;Min_cycle;Max_cycle;Signal;HPM_P1;HPM_P2
2022/08/08 00:03:40;;;;;;;33.75;9.73;;;;;;;20.93;85.03;100028.84;10460554;28;20083;-72
2022/08/08 00:09:19;;;;;;;28.30;9.30;;;;;;;20.93;84.98;100034.22;10447807;28;20044;-72
2022/08/08 00:14:41;;;;;;;23.92;8.65;;;;;;;20.90;84.62;100034.72;10410070;28;20064;-72
2022/08/08 00:19:55;;;;;;;16.80;8.02;;;;;;;20.38;84.18;99951.19;10460151;28;20048;-72
2022/08/08 00:25:03;;;;;;;16.70;7.40;;;;;;;20.93;84.06;100034.22;10460033;28;20079;-72
2022/08/08 00:30:07;;;;;;;11.05;6.85;;;;;;;20.97;83.98;100043.50;10460154;28;20049;-72
2022/08/08 00:35:26;;;;;;;14.30;5.93;;;;;;;21.10;85.74;100038.84;10459649;28;20060;-73
2022/08/08 00:40:27;;;;;;;10.48;5.40;;;;;;;21.09;83.68;100048.00;10460009;28;20044;-72
2022/08/08 00:45:55;;;;;;;11.15;5.20;;;;;;;21.24;86.05;100050.13;10459481;28;20048;-72
2022/08/08 00:51:08;;;;;;;7.13;4.70;;;;;;;21.29;86.33;100059.13;10456739;28;20120;-73
2022/08/08 00:56:36;;;;;;;12.67;5.30;;;;;;;21.32;87.00;100068.66;10426543;28;20083;-73
2022/08/08 01:02:19;;;;;;;15.27;5.50;;;;;;;21.33;87.75;100071.13;10417448;28;20284;-72
2022/08/08 01:07:47;;;;;;;10.63;4.60;;;;;;;21.37;87.72;100074.16;10417712;28;20065;-72
2022/08/08 01:12:51;;;;;;;18.05;4.75;;;;;;;21.32;85.92;100071.34;10416999;28;20041;-72
2022/08/08 01:18:25;;;;;;;7.40;4.18;;;;;;;21.36;89.80;100078.75;10417205;28;20034;-72
2022/08/08 01:23:43;;;;;;;8.63;5.00;;;;;;;21.28;88.16;100054.81;10417431;28;20417;-72
2022/08/08 01:29:02;;;;;;;24.88;4.95;;;;;;;21.34;87.67;100077.34;10417591;28;20049;-72
2022/08/08 01:34:18;;;;;;;23.13;5.35;;;;;;;21.26;88.93;100075.84;10416778;28;20516;-73
2022/08/08 01:39:43;;;;;;;26.60;6.13;;;;;;;21.15;89.33;100077.56;10415914;28;20037;-73
2022/08/08 01:44:57;;;;;;;13.02;5.70;;;;;;;20.86;88.18;100036.28;10415706;28;20089;-72
2022/08/08 01:50:15;;;;;;;106.80;13.15;;;;;;;21.26;89.43;100112.84;10415259;28;20489;-72
2022/08/08 01:55:27;;;;;;;13.77;5.82;;;;;;;21.17;89.21;100067.31;10415585;28;20544;-70
2022/08/08 02:01:02;;;;;;;18.40;6.20;;;;;;;21.17;91.35;100077.31;10442141;28;20037;-73
2022/08/08 02:06:39;;;;;;;14.23;4.25;;;;;;;20.97;90.68;100021.91;10455844;28;20183;-71
2022/08/08 02:11:43;;;;;;;10.85;5.55;;;;;;;20.96;92.16;100032.94;10456818;28;20087;-72
2022/08/08 02:17:04;;;;;;;12.38;5.30;;;;;;;20.76;95.82;99998.31;10456523;28;20041;-72
2022/08/08 02:28:04;;;;;;;14.05;5.72;;;;;;;21.26;98.28;100113.66;10456606;28;20055;-72
2022/08/08 02:33:12;;;;;;;17.30;6.65;;;;;;;21.11;97.56;100121.50;10420706;28;20057;-72
2022/08/08 02:38:40;;;;;;;15.57;5.82;;;;;;;21.15;100.00;100122.69;10454697;28;20079;-72
2022/08/08 02:44:09;;;;;;;14.30;6.50;;;;;;;21.14;100.00;100127.22;10454135;28;20057;-72
2022/08/08 02:49:38;;;;;;;11.77;6.80;;;;;;;21.15;100.00;100119.97;10455134;28;20072;-71
2022/08/08 02:55:12;;;;;;;9.63;5.97;;;;;;;21.07;100.00;100136.56;10454882;28;20492;-70
2022/08/08 03:00:49;;;;;;;10.25;6.57;;;;;;;21.09;100.00;100146.06;10455150;28;20056;-72
2022/08/08 03:06:31;;;;;;;13.20;6.30;;;;;;;21.13;100.00;100149.91;10454620;28;20496;-71
2022/08/08 03:12:01;;;;;;;11.45;6.35;;;;;;;21.15;100.00;100144.28;10444944;28;20132;-70
2022/08/08 03:17:05;;;;;;;10.57;5.82;;;;;;;21.07;100.00;100128.47;10454468;28;20131;-70
2022/08/08 03:22:06;;;;;;;;;;;;;;;21.35;100.00;100152.72;10454453;28;20420;-70
2022/08/08 03:27:20;;;;;;;14.63;6.82;;;;;;;21.05;100.00;100123.28;10453716;28;20015;-71
2022/08/08 03:37:40;;;;;;;15.52;7.25;;;;;;;21.20;100.00;100136.25;10462369;28;20041;-71
2022/08/08 03:42:41;;;;;;;11.93;7.35;;;;;;;21.53;100.00;100164.41;10462139;28;20492;-71
2022/08/08 03:47:42;;;;;;;12.20;7.22;;;;;;;21.67;100.00;100173.84;10447949;28;20047;-71
2022/08/08 03:52:42;;;;;;;10.82;6.95;;;;;;;21.01;100.00;100065.44;10462437;28;20464;-71
2022/08/08 03:57:48;;;;;;;13.52;6.63;;;;;;;21.80;100.00;100192.44;10461558;28;20124;-72
2022/08/08 04:02:58;;;;;;;11.60;6.55;;;;;;;21.90;100.00;100205.31;10461742;28;20119;-72
2022/08/08 04:08:00;;;;;;;10.35;7.80;;;;;;;21.89;100.00;100190.94;10460096;28;20048;-71
2022/08/08 04:13:02;;;;;;;12.63;6.97;;;;;;;22.08;100.00;100212.38;10460234;28;20412;-72
2022/08/08 04:18:02;;;;;;;9.82;6.90;;;;;;;22.23;100.00;100201.78;10425619;28;20050;-71
2022/08/08 04:23:04;;;;;;;9.32;7.32;;;;;;;22.42;100.00;100202.31;10343837;28;20066;-72
2022/08/08 04:28:05;;;;;;;9.82;6.80;;;;;;;22.64;100.00;100205.03;10328499;28;20065;-73
2022/08/08 04:33:06;;;;;;;9.35;7.25;;;;;;;22.83;100.00;100193.94;10335011;28;20046;-74
2022/08/08 04:38:07;;;;;;;8.18;5.68;;;;;;;22.93;100.00;100207.56;10333416;28;20038;-75
2022/08/08 04:43:08;;;;;;;13.45;6.65;;;;;;;23.04;100.00;100203.13;10337577;28;20046;-74
2022/08/08 04:48:09;;;;;;;8.77;5.18;;;;;;;22.66;100.00;100143.34;10335938;28;20045;-75
2022/08/08 04:53:10;;;;;;;9.45;4.70;;;;;;;22.93;99.44;100185.91;10330218;28;20050;-72
2022/08/08 04:58:13;;;;;;;5.80;3.97;;;;;;;22.89;97.86;100168.53;10315408;28;20125;-72
2022/08/08 05:03:14;;;;;;;8.85;4.63;;;;;;;22.93;98.53;100153.41;10295818;28;20047;-72
2022/08/08 05:08:15;;;;;;;8.15;4.82;;;;;;;22.95;96.17;100151.28;10295580;28;20042;-72
2022/08/08 05:13:16;;;;;;;11.80;3.88;;;;;;;23.52;94.65;100217.72;10295842;28;20049;-72
2022/08/08 05:18:17;;;;;;;12.25;3.85;;;;;;;23.32;93.69;100177.69;10295858;28;20035;-72
2022/08/08 05:23:18;;;;;;;7.55;3.83;;;;;;;23.52;93.00;100212.31;10294937;28;20470;-73
2022/08/08 05:28:19;;;;;;;7.55;3.60;;;;;;;23.45;91.92;100194.34;10294754;28;20051;-72
2022/08/08 05:33:20;;;;;;;9.23;4.15;;;;;;;23.64;91.95;100202.09;10294473;28;20043;-72
2022/08/08 05:38:21;;;;;;;9.18;3.80;;;;;;;23.79;90.77;100226.69;10295021;28;20045;-72
2022/08/08 05:43:28;;;;;;;6.30;4.00;;;;;;;23.85;90.50;100241.09;10294918;28;20090;-72
2022/08/08 05:48:31;;;;;;;14.18;4.28;;;;;;;23.96;90.21;100236.56;10294620;28;20452;-72
2022/08/08 05:53:32;;;;;;;14.17;5.07;;;;;;;24.19;89.17;100240.81;10294798;28;20047;-72
2022/08/08 05:58:33;;;;;;;9.57;4.20;;;;;;;24.28;87.15;100239.25;10293245;28;20289;-72
2022/08/08 06:03:35;;;;;;;6.72;4.13;;;;;;;24.37;85.54;100234.97;10293804;28;20162;-72
2022/08/08 06:08:43;;;;;;;9.38;4.65;;;;;;;24.55;84.58;100250.84;10293944;28;20082;-72
2022/08/08 06:13:49;;;;;;;6.45;3.30;;;;;;;24.14;83.07;100180.00;10292834;28;20050;-72
2022/08/08 06:18:53;;;;;;;7.40;3.15;;;;;;;24.57;80.34;100229.69;10293366;28;20038;-72
2022/08/08 06:23:54;;;;;;;6.55;2.92;;;;;;;24.71;79.13;100242.78;10293087;28;20067;-72
2022/08/08 06:29:04;;;;;;;5.78;2.92;;;;;;;24.44;75.11;100184.00;10293142;28;20383;-73
2022/08/08 06:34:17;;;;;;;8.25;3.05;;;;;;;24.98;75.04;100253.53;10293332;28;20053;-72
2022/08/08 06:39:19;;;;;;;;;;;;;;;25.31;74.36;100257.75;10293189;28;20125;-72
2022/08/08 06:44:23;;;;;;;12.38;3.75;;;;;;;24.84;72.44;100198.84;10292346;28;19926;-72
2022/08/08 06:49:25;;;;;;;5.22;3.40;;;;;;;25.17;70.43;100235.66;10291706;28;20400;-72
2022/08/08 06:54:28;;;;;;;6.73;2.47;;;;;;;25.42;68.88;100253.94;10291683;28;20039;-72
2022/08/08 06:59:28;;;;;;;6.47;5.18;;;;;;;25.54;67.60;100255.59;10291504;28;20074;-72
2022/08/08 07:05:01;;;;;;;5.03;2.88;;;;;;;25.81;64.28;100258.88;10291619;28;20054;-71
2022/08/08 07:10:10;;;;;;;5.28;2.30;;;;;;;26.02;64.25;100253.47;10292128;28;20042;-71
2022/08/08 07:15:13;;;;;;;10.48;2.40;;;;;;;26.18;63.20;100249.69;10291116;28;20043;-71
2022/08/08 07:20:19;;;;;;;4.60;2.20;;;;;;;26.36;59.97;100240.13;10291839;28;20176;-71
2022/08/08 07:25:24;;;;;;;6.13;2.00;;;;;;;26.66;56.83;100239.25;10291194;28;20070;-71
2022/08/08 07:30:24;;;;;;;4.13;1.40;;;;;;;26.84;54.88;100241.38;10291903;28;20055;-71
2022/08/08 07:35:27;;;;;;;5.28;1.40;;;;;;;27.06;50.71;100248.34;10291233;28;20101;-72
2022/08/08 07:40:28;;;;;;;4.07;1.85;;;;;;;27.27;50.13;100244.44;10291025;28;20436;-71
2022/08/08 07:45:30;;;;;;;6.45;1.60;;;;;;;26.94;48.65;100161.44;10290667;28;20067;-70
2022/08/08 07:50:36;;;;;;;4.10;1.60;;;;;;;27.73;46.64;100241.44;10291003;28;20047;-70
2022/08/08 07:55:38;;;;;;;10.45;1.60;;;;;;;28.28;45.88;100230.31;10290262;28;20043;-70
2022/08/08 08:00:48;;;;;;;5.53;1.35;;;;;;;28.80;40.77;100219.66;10290965;28;20130;-70
2022/08/08 08:05:50;;;;;;;5.15;1.70;;;;;;;29.15;42.24;100165.63;10290155;28;20079;-71
2022/08/08 08:10:55;;;;;;;6.80;2.00;;;;;;;29.93;40.65;100238.84;10290145;28;20113;-72
2022/08/08 08:16:06;;;;;;;5.97;1.30;;;;;;;30.56;41.21;100239.38;10290742;28;20046;-71
2022/08/08 08:21:08;;;;;;;4.45;1.20;;;;;;;30.51;37.69;100258.66;10293788;28;20039;-72
2022/08/08 08:26:11;;;;;;;7.97;2.27;;;;;;;30.77;37.71;100262.53;10298062;28;20573;-71
2022/08/08 08:31:13;;;;;;;6.28;1.42;;;;;;;30.66;36.22;100240.00;10295791;28;20054;-73
2022/08/08 08:36:14;;;;;;;2.72;1.27;;;;;;;31.02;34.89;100241.22;10296671;28;20039;-72
2022/08/08 08:41:18;;;;;;;31.20;3.20;;;;;;;31.24;35.34;100268.72;10297440;28;20053;-72
2022/08/08 08:46:19;;;;;;;5.00;2.40;;;;;;;31.00;35.13;100249.75;10296841;28;20042;-75
2022/08/08 08:51:24;;;;;;;9.07;4.25;;;;;;;30.95;34.94;100268.25;10297801;28;20043;-70
2022/08/08 08:56:27;;;;;;;4.55;1.50;;;;;;;30.86;33.72;100251.69;10295966;28;20511;-72
2022/08/08 09:01:33;;;;;;;5.32;2.80;;;;;;;30.16;32.70;100185.03;10295772;28;20043;-73
2022/08/08 09:06:40;;;;;;;3.63;1.30;;;;;;;29.96;33.26;100202.63;10296867;28;20042;-71
2022/08/08 09:11:45;;;;;;;3.22;1.40;;;;;;;29.95;34.08;100194.75;10295711;28;20080;-69
2022/08/08 09:16:46;;;;;;;3.22;1.25;;;;;;;30.34;34.54;100251.06;10295041;28;20553;-72
2022/08/08 09:21:51;;;;;;;3.67;1.48;;;;;;;31.01;34.34;100278.00;10295295;28;20043;-71
2022/08/08 09:27:06;;;;;;;5.05;1.45;;;;;;;31.01;33.34;100265.09;10295458;28;20047;-70
2022/08/08 09:32:14;;;;;;;6.50;1.40;;;;;;;30.47;34.14;100240.09;10294583;28;20050;-71
2022/08/08 09:37:18;;;;;;;3.60;1.38;;;;;;;29.86;33.27;100178.19;10295015;28;20046;-78
2022/08/08 09:42:23;;;;;;;5.05;1.25;;;;;;;30.78;33.44;100275.16;10294426;28;20054;-71
2022/08/08 09:47:27;;;;;;;4.80;1.55;;;;;;;30.90;32.91;100197.84;10293951;28;20118;-72
2022/08/08 09:52:31;;;;;;;6.18;1.30;;;;;;;31.55;31.94;100268.06;10293703;28;20061;-69
2022/08/08 09:57:38;;;;;;;4.95;2.35;;;;;;;31.56;31.71;100273.25;10294165;28;20398;-69
2022/08/08 10:02:45;;;;;;;6.10;1.90;;;;;;;31.12;31.86;100213.56;10293832;28;20047;-72
2022/08/08 10:07:51;;;;;;;9.55;1.88;;;;;;;31.73;32.26;100269.00;10293839;28;20122;-70
2022/08/08 10:12:52;;;;;;;9.43;1.85;;;;;;;31.88;32.54;100270.56;10293439;28;20039;-70
2022/08/08 10:17:55;;;;;;;7.47;1.52;;;;;;;31.77;31.56;100253.50;10292850;28;20039;-70
2022/08/08 10:23:00;;;;;;;9.00;1.30;;;;;;;31.83;30.70;100249.53;10293229;28;20471;-72
2022/08/08 10:28:01;;;;;;;6.60;1.40;;;;;;;32.02;31.23;100260.34;10293169;28;20459;-72
2022/08/08 10:33:08;;;;;;;19.85;2.42;;;;;;;31.55;31.68;100257.06;10293560;28;20101;-70
2022/08/08 10:38:14;;;;;;;6.43;1.25;;;;;;;31.21;30.68;100260.31;10292969;28;20046;-73
2022/08/08 10:43:14;;;;;;;11.20;2.05;;;;;;;31.06;31.70;100256.75;10291883;28;20053;-70
2022/08/08 10:48:15;;;;;;;9.52;1.65;;;;;;;31.07;30.47;100250.16;10291714;28;20499;-71
2022/08/08 10:53:18;;;;;;;4.13;1.20;;;;;;;30.76;31.18;100263.66;10292225;28;20057;-69
2022/08/08 10:58:27;;;;;;;5.78;1.20;;;;;;;30.57;30.38;100250.03;10293935;28;20034;-70
2022/08/08 11:03:43;;;;;;;3.42;1.30;;;;;;;30.51;31.35;100254.00;10295810;28;20042;-70
2022/08/08 11:08:44;;;;;;;10.45;1.67;;;;;;;30.43;31.06;100262.94;10291213;28;20463;-72
2022/08/08 11:13:45;;;;;;;7.78;1.48;;;;;;;30.17;31.36;100233.22;10291774;28;20086;-71
2022/08/08 11:18:48;;;;;;;13.45;1.55;;;;;;;29.99;32.62;100253.28;10291585;28;20117;-70
2022/08/08 11:23:52;;;;;;;5.15;1.20;;;;;;;29.93;32.35;100271.72;10290811;28;20515;-70
2022/08/08 11:28:55;;;;;;;3.45;1.30;;;;;;;29.60;32.14;100185.97;10291498;28;20101;-69
2022/08/08 11:33:59;;;;;;;8.80;1.58;;;;;;;30.29;31.98;100249.22;10291687;28;20038;-70
2022/08/08 11:39:02;;;;;;;18.45;2.03;;;;;;;29.76;31.40;100203.78;10291624;28;20051;-70
2022/08/08 11:44:04;;;;;;;;;;;;;;;30.36;32.16;100255.09;10295520;28;20462;-74
2022/08/08 11:49:11;;;;;;;3.60;1.17;;;;;;;30.29;32.19;100238.25;10316117;28;20016;-72
2022/08/08 11:54:12;;;;;;;2.50;1.00;;;;;;;30.36;30.65;100230.44;10299044;28;20486;-71
2022/08/08 11:59:13;;;;;;;4.60;1.20;;;;;;;29.91;31.13;100167.13;10316040;28;20038;-72
2022/08/08 12:04:15;;;;;;;9.30;1.50;;;;;;;30.69;30.85;100249.53;10308501;28;20055;-72
2022/08/08 12:09:16;;;;;;;20.97;3.20;;;;;;;30.52;30.63;100183.56;10338795;28;20038;-72
2022/08/08 12:14:23;;;;;;;24.15;3.08;;;;;;;30.86;30.44;100214.09;10337641;28;20038;-72
2022/08/08 12:19:25;;;;;;;7.45;3.40;;;;;;;30.79;30.44;100189.03;10337218;28;20132;-72
2022/08/08 12:24:25;;;;;;;10.20;1.70;;;;;;;31.22;29.79;100243.50;10336387;28;20062;-71
2022/08/08 12:29:33;;;;;;;9.18;1.80;;;;;;;31.36;30.31;100243.50;10337801;28;20035;-75
2022/08/08 12:34:43;;;;;;;3.80;1.17;;;;;;;31.37;29.52;100248.69;10332381;28;20043;-72
2022/08/08 12:39:44;;;;;;;5.07;1.52;;;;;;;31.29;30.48;100227.44;10335004;28;20065;-71
2022/08/08 12:44:45;;;;;;;4.93;1.52;;;;;;;31.12;30.77;100246.50;10351991;28;20048;-70
2022/08/08 12:49:54;;;;;;;5.75;1.40;;;;;;;30.84;30.44;100221.00;10336714;28;20042;-72
2022/08/08 12:55:07;;;;;;;6.03;1.52;;;;;;;31.08;30.78;100250.94;10335558;28;20085;-73
2022/08/08 13:00:08;;;;;;;7.05;1.33;;;;;;;30.86;30.01;100216.84;10336455;28;20046;-74
2022/08/08 13:05:19;;;;;;;21.63;1.60;;;;;;;30.76;29.49;100230.75;10335497;28;20057;-72
2022/08/08 13:10:19;;;;;;;6.25;1.40;;;;;;;30.51;30.47;100181.91;10335594;28;20134;-71
2022/08/08 13:15:21;;;;;;;4.03;1.30;;;;;;;30.86;30.02;100232.50;10336055;28;20574;-72
2022/08/08 13:20:22;;;;;;;26.90;2.67;;;;;;;30.91;29.42;100227.72;10335371;28;20069;-72
2022/08/08 13:25:23;;;;;;;19.73;2.57;;;;;;;30.89;29.95;100229.94;10335975;28;20073;-72
2022/08/08 13:30:26;;;;;;;13.13;2.03;;;;;;;30.82;30.00;100250.69;10335976;28;20053;-71
2022/08/08 13:35:27;;;;;;;4.47;1.40;;;;;;;30.77;29.71;100248.81;10334720;28;20042;-71
2022/08/08 13:40:29;;;;;;;8.20;1.58;;;;;;;30.65;29.39;100251.28;10330304;28;20053;-70
2022/08/08 13:45:30;;;;;;;6.27;1.43;;;;;;;30.61;28.85;100256.56;10318849;28;20149;-71
2022/08/08 13:50:32;;;;;;;21.67;1.70;;;;;;;30.52;29.31;100241.94;10352754;28;20561;-70
2022/08/08 13:55:32;;;;;;;4.35;1.10;;;;;;;30.52;29.04;100252.09;10332651;28;20046;-72
2022/08/08 14:00:40;;;;;;;8.32;1.45;;;;;;;30.56;28.59;100266.81;10310435;28;20038;-68
2022/08/08 14:05:41;;;;;;;45.85;3.78;;;;;;;30.42;28.74;100259.41;10348468;28;20053;-68
2022/08/08 14:10:41;;;;;;;7.07;1.63;;;;;;;30.35;29.04;100266.38;10334261;28;20045;-68
2022/08/08 14:15:42;;;;;;;20.23;2.45;;;;;;;30.15;29.53;100249.13;10333058;28;20034;-70
2022/08/08 14:20:43;;;;;;;5.13;1.17;;;;;;;30.18;28.71;100275.13;10332798;28;20475;-71
2022/08/08 14:25:48;;;;;;;14.20;2.00;;;;;;;30.16;29.04;100258.19;10332404;28;20522;-72
2022/08/08 14:30:54;;;;;;;6.13;1.30;;;;;;;29.61;29.13;100181.31;10322812;28;20104;-70
2022/08/08 14:36:02;;;;;;;16.35;1.58;;;;;;;29.99;29.18;100261.47;10325190;28;20057;-70
2022/08/08 14:41:14;;;;;;;6.45;1.25;;;;;;;29.85;28.53;100266.09;10332170;28;20084;-71
2022/08/08 14:46:17;;;;;;;5.63;1.67;;;;;;;29.75;29.27;100264.34;10332054;28;20490;-71
2022/08/08 14:51:18;;;;;;;20.42;2.63;;;;;;;29.62;29.02;100259.63;10332410;28;20402;-70
2022/08/08 14:56:19;;;;;;;10.60;1.55;;;;;;;29.51;28.93;100262.47;10331658;28;20038;-73
2022/08/08 15:01:29;;;;;;;10.95;1.83;;;;;;;29.30;29.01;100244.72;10332288;28;20465;-71
2022/08/08 15:06:30;;;;;;;7.82;2.20;;;;;;;29.32;29.26;100253.47;10332238;28;20469;-71
2022/08/08 15:11:33;;;;;;;12.98;1.85;;;;;;;29.23;29.57;100250.56;10323662;28;20104;-71
2022/08/08 15:16:34;;;;;;;3.90;1.58;;;;;;;28.79;29.88;100205.16;10328624;28;20495;-70
2022/08/08 15:21:35;;;;;;;9.57;1.52;;;;;;;28.97;30.07;100266.47;10330390;28;20053;-70
2022/08/08 15:26:35;;;;;;;10.32;1.48;;;;;;;28.84;30.35;100267.19;10305674;28;20054;-72
2022/08/08 15:31:36;;;;;;;7.53;1.50;;;;;;;27.91;30.29;100149.03;10298349;28;20043;-72
2022/08/08 15:36:38;;;;;;;15.43;2.03;;;;;;;28.59;30.45;100290.13;10313500;28;20478;-72
2022/08/08 15:41:39;;;;;;;7.95;1.35;;;;;;;28.40;30.99;100303.69;10321891;28;20039;-72
2022/08/08 15:46:40;;;;;;;10.23;1.90;;;;;;;28.13;31.21;100301.47;10339309;28;20517;-71
2022/08/08 15:51:41;;;;;;;17.45;2.83;;;;;;;27.75;31.67;100268.44;10299871;28;20133;-74
2022/08/08 15:56:42;;;;;;;11.07;2.40;;;;;;;27.74;31.67;100307.75;10299588;28;20121;-73
2022/08/08 16:01:43;;;;;;;17.58;2.85;;;;;;;27.51;32.20;100320.16;10339208;28;20512;-75
2022/08/08 16:06:49;;;;;;;8.70;2.00;;;;;;;26.71;32.87;100233.75;10337097;28;20128;-75
2022/08/08 16:11:50;;;;;;;12.80;1.75;;;;;;;27.09;32.70;100316.75;10338489;28;20081;-74
2022/08/08 16:16:53;;;;;;;17.75;2.47;;;;;;;26.28;33.87;100227.88;10331625;28;20064;-75
2022/08/08 16:21:56;;;;;;;5.63;2.10;;;;;;;26.71;33.53;100323.69;10337740;28;20054;-74
2022/08/08 16:26:56;;;;;;;10.90;2.70;;;;;;;26.52;33.95;100315.28;10337641;28;20042;-73
2022/08/08 16:31:57;;;;;;;25.98;3.08;;;;;;;25.48;35.00;100189.50;10337293;28;20414;-77
2022/08/08 16:36:58;;;;;;;23.05;3.45;;;;;;;25.98;37.09;100324.00;10338223;28;20042;-77
2022/08/08 16:41:59;;;;;;;21.20;3.45;;;;;;;25.76;37.79;100342.41;10336945;28;20038;-75
2022/08/08 16:47:25;;;;;;;27.70;4.47;;;;;;;25.41;38.94;100336.63;10336088;28;20070;-78
2022/08/08 16:52:28;;;;;;;36.67;5.53;;;;;;;25.00;41.25;100360.84;10313817;28;20038;-73
2022/08/08 16:57:29;;;;;;;17.27;3.73;;;;;;;24.69;41.68;100346.28;10318389;28;20045;-79
2022/08/08 17:02:30;;;;;;;38.10;4.95;;;;;;;24.42;42.89;100357.22;10336264;28;20554;-73
2022/08/08 17:07:31;;;;;;;37.25;5.22;;;;;;;24.17;43.29;100367.81;10323702;28;20042;-77
2022/08/08 17:12:32;;;;;;;44.13;5.25;;;;;;;23.31;44.53;100265.50;10335969;28;20049;-75
2022/08/08 17:17:33;;;;;;;23.65;3.63;;;;;;;23.30;44.40;100293.66;10323168;28;20061;-74
2022/08/08 17:22:34;;;;;;;26.73;4.47;;;;;;;22.91;44.92;100253.03;10307652;28;20062;-75
2022/08/08 17:27:35;;;;;;;19.58;3.83;;;;;;;23.31;45.52;100360.34;10295615;28;20478;-75
2022/08/08 17:32:36;;;;;;;23.98;5.28;;;;;;;23.08;45.88;100351.38;10295816;28;20081;-73
2022/08/08 17:37:37;;;;;;;18.85;4.80;;;;;;;22.56;46.48;100305.66;10294407;28;20501;-74
2022/08/08 17:42:38;;;;;;;25.13;5.18;;;;;;;22.75;47.16;100353.06;10296945;28;20042;-73
2022/08/08 17:47:39;;;;;;;21.50;5.70;;;;;;;22.57;47.42;100350.59;10314747;28;20054;-73
2022/08/08 17:52:39;;;;;;;25.92;5.60;;;;;;;22.55;48.06;100367.13;10333055;28;20038;-75
2022/08/08 17:57:40;;;;;;;17.40;5.75;;;;;;;22.42;48.63;100355.78;10334988;28;20494;-74
2022/08/08 18:02:41;;;;;;;14.85;4.70;;;;;;;22.28;48.84;100361.50;10334350;28;20096;-73
2022/08/08 18:07:42;;;;;;;27.42;5.95;;;;;;;22.14;49.20;100353.91;10329410;28;20039;-71
2022/08/08 18:12:43;;;;;;;34.97;5.82;;;;;;;22.09;49.19;100357.38;10339636;28;20141;-74
2022/08/08 18:17:44;;;;;;;21.02;5.13;;;;;;;21.77;50.21;100327.31;10333140;28;20133;-76
2022/08/08 18:22:45;;;;;;;17.50;5.25;;;;;;;21.14;50.17;100262.28;10340756;28;20120;-73
2022/08/08 18:27:46;;;;;;;28.23;6.82;;;;;;;21.71;50.43;100358.81;10317657;28;20093;-72
2022/08/08 18:32:46;;;;;;;18.38;6.30;;;;;;;21.64;50.21;100358.16;10292623;28;20053;-72
2022/08/08 18:37:47;;;;;;;20.73;5.97;;;;;;;21.61;51.09;100358.63;10291856;28;20062;-75
2022/08/08 18:42:48;;;;;;;14.35;4.80;;;;;;;21.51;51.04;100326.84;10291331;28;20042;-74
2022/08/08 18:47:49;;;;;;;19.63;4.88;;;;;;;21.49;51.46;100345.16;10304903;28;20049;-75
2022/08/08 18:52:50;;;;;;;15.85;4.93;;;;;;;21.38;51.76;100344.13;10303132;28;20042;-75
2022/08/08 18:57:50;;;;;;;14.00;4.88;;;;;;;21.24;51.56;100350.84;10322706;28;20054;-75
2022/08/08 19:02:53;;;;;;;12.32;4.72;;;;;;;20.56;51.83;100257.84;10305217;28;20061;-76
2022/08/08 19:07:54;;;;;;;18.50;5.67;;;;;;;21.00;51.90;100341.13;10310757;28;20038;-75
2022/08/08 19:12:55;;;;;;;9.48;4.38;;;;;;;20.90;52.55;100330.91;10331707;28;20105;-75
2022/08/08 19:17:56;;;;;;;15.07;3.92;;;;;;;20.85;52.43;100345.16;10298622;28;20050;-76
2022/08/08 19:22:57;;;;;;;28.55;4.20;;;;;;;20.13;53.11;100233.88;10291448;28;20077;-75
2022/08/08 19:27:59;;;;;;;15.02;3.10;;;;;;;20.66;53.43;100325.53;10290895;28;20057;-76
2022/08/08 19:33:00;;;;;;;11.70;2.72;;;;;;;20.69;53.33;100340.44;10291446;28;20430;-77
2022/08/08 19:38:01;;;;;;;19.45;2.72;;;;;;;20.72;53.37;100337.25;10291115;28;20046;-75
2022/08/08 19:43:02;;;;;;;21.90;4.10;;;;;;;20.66;53.07;100346.31;10289855;28;20049;-75
2022/08/08 19:48:04;;;;;;;13.15;3.60;;;;;;;20.65;53.48;100355.47;10291178;28;20074;-75
2022/08/08 19:53:05;;;;;;;16.27;3.28;;;;;;;20.68;53.41;100349.59;10290500;28;20038;-76
2022/08/08 19:58:05;;;;;;;8.65;2.22;;;;;;;20.71;52.64;100359.94;10290633;28;20417;-74
2022/08/08 20:03:06;;;;;;;17.67;2.60;;;;;;;20.46;53.11;100325.00;10290254;28;20070;-75
2022/08/08 20:08:08;;;;;;;8.57;2.38;;;;;;;20.28;53.14;100310.59;10290852;28;20098;-75
2022/08/08 20:13:09;;;;;;;7.05;1.65;;;;;;;20.46;53.40;100360.09;10290715;28;20477;-75
2022/08/08 20:18:10;;;;;;;12.15;2.60;;;;;;;20.32;53.74;100362.19;10295902;28;20047;-75
2022/08/08 20:23:11;;;;;;;9.35;2.00;;;;;;;20.02;54.33;100340.66;10297937;28;20054;-75
2022/08/08 20:28:12;;;;;;;7.53;2.03;;;;;;;19.52;54.76;100265.47;10297650;28;20054;-76
2022/08/08 20:33:13;;;;;;;6.50;1.60;;;;;;;19.98;55.57;100367.28;10297526;28;20129;-76
2022/08/08 20:38:14;;;;;;;8.55;1.75;;;;;;;19.36;57.12;100278.53;10297451;28;20189;-75
2022/08/08 20:43:15;;;;;;;4.63;1.77;;;;;;;19.79;57.98;100360.28;10297645;28;20145;-75
2022/08/08 20:48:15;;;;;;;18.88;3.42;;;;;;;19.74;58.27;100358.28;10305044;28;20042;-75
2022/08/08 20:53:18;;;;;;;11.40;2.30;;;;;;;19.65;58.69;100356.09;10319776;28;20046;-75
2022/08/08 20:58:19;;;;;;;12.90;2.42;;;;;;;19.49;58.89;100336.78;10337019;28;20096;-75
2022/08/08 21:03:20;;;;;;;14.75;2.97;;;;;;;18.89;59.03;100258.59;10336224;28;20088;-76
2022/08/08 21:08:20;;;;;;;7.10;2.60;;;;;;;18.95;60.19;100330.38;10336323;28;20132;-76
2022/08/08 21:13:21;;;;;;;11.90;3.40;;;;;;;19.03;61.27;100362.41;10336079;28;20093;-76
2022/08/08 21:18:22;;;;;;;13.77;3.78;;;;;;;18.97;61.71;100346.31;10335565;28;20451;-75
2022/08/08 21:23:23;;;;;;;10.52;4.13;;;;;;;18.50;61.56;100284.84;10335600;28;20145;-75
2022/08/08 21:28:24;;;;;;;11.10;3.88;;;;;;;18.66;61.81;100319.25;10335949;28;20061;-75
2022/08/08 21:33:25;;;;;;;10.52;4.18;;;;;;;18.86;62.40;100353.25;10334940;28;20558;-75
2022/08/08 21:38:26;;;;;;;14.88;5.20;;;;;;;18.81;61.48;100347.69;10334778;28;20043;-75
2022/08/08 21:43:27;;;;;;;11.82;5.07;;;;;;;18.74;62.37;100346.94;10334551;28;20052;-75
2022/08/08 21:48:28;;;;;;;11.57;4.75;;;;;;;18.80;61.88;100343.38;10336520;28;20498;-78
2022/08/08 21:53:29;;;;;;;9.70;4.47;;;;;;;18.68;61.87;100330.59;10334711;28;20070;-75
2022/08/08 21:58:32;;;;;;;10.20;4.22;;;;;;;18.10;61.45;100241.34;10334593;28;20089;-75
2022/08/08 22:03:32;;;;;;;15.55;4.68;;;;;;;18.69;61.54;100337.63;10334383;28;20050;-75
2022/08/08 22:08:33;;;;;;;11.95;4.90;;;;;;;18.06;61.88;100246.34;10334466;28;20434;-75
2022/08/08 22:13:34;;;;;;;13.60;3.83;;;;;;;18.54;62.62;100333.63;10333755;28;20486;-75
2022/08/08 22:18:35;;;;;;;11.18;3.78;;;;;;;18.33;62.94;100327.59;10333022;28;20053;-75
2022/08/08 22:23:38;;;;;;;8.63;4.20;;;;;;;18.28;63.45;100329.28;10333762;28;20062;-75
2022/08/08 22:28:39;;;;;;;6.97;3.50;;;;;;;18.32;63.67;100325.97;10333469;28;20039;-74
2022/08/08 22:33:42;;;;;;;11.52;3.83;;;;;;;18.20;63.82;100314.28;10333360;28;20061;-75
2022/08/08 22:38:43;;;;;;;12.55;3.60;;;;;;;17.71;64.75;100249.47;10331880;28;20046;-75
2022/08/08 22:43:44;;;;;;;9.35;3.20;;;;;;;18.24;64.77;100323.53;10333172;28;20043;-75
2022/08/08 22:48:48;;;;;;;6.82;3.10;;;;;;;18.20;64.63;100315.09;10332499;28;20045;-74
2022/08/08 22:53:49;;;;;;;5.60;2.58;;;;;;;18.19;64.74;100308.09;10332985;28;20045;-75
2022/08/08 22:58:50;;;;;;;6.30;2.55;;;;;;;17.78;64.02;100226.09;10332345;28;20046;-75
2022/08/08 23:03:51;;;;;;;18.35;1.90;;;;;;;18.29;63.60;100322.91;10331426;28;20081;-75
2022/08/08 23:08:53;;;;;;;4.55;2.10;;;;;;;18.24;63.56;100332.44;10331532;28;20050;-75
2022/08/08 23:13:54;;;;;;;3.22;1.75;;;;;;;18.02;63.24;100293.53;10332232;28;20044;-74
2022/08/08 23:18:55;;;;;;;8.00;2.63;;;;;;;18.06;63.51;100321.59;10332520;28;20375;-75
2022/08/08 23:23:56;;;;;;;7.82;2.30;;;;;;;18.02;64.07;100333.84;10331590;28;20406;-75